Time;durP1;ratioP1;P1;durP2;ratioP2;P2;SDS_P1;SDS_P2;PMS_P1;PMS_P2;Temp;Humidity;BMP_temperature;BMP_pressure;BME280_temperature;BME280_humidity;BME280_pressure;Samples;Min_cycle;Max_cycle;Signal;HPM_P1;HPM_P2
2022/05/22 00:00:30;;;;;;;3.65;2.50;;;15.90;64.00;;;15.09;63.72;96229.22;4881907;28;20316;-62
2022/05/22 00:02:56;;;;;;;4.47;2.28;;;15.80;63.90;;;15.04;64.43;96231.69;4900520;28;20414;-62
2022/05/22 00:05:23;;;;;;;4.20;2.72;;;15.80;63.90;;;15.00;64.86;96227.84;4880546;28;20712;-62
2022/05/22 00:07:49;;;;;;;5.15;2.33;;;15.80;64.10;;;14.97;64.24;96225.63;4903857;28;20622;-62
2022/05/22 00:10:15;;;;;;;3.58;2.42;;;15.80;64.00;;;14.93;63.69;96219.94;4903308;28;20364;-62
2022/05/22 00:12:43;;;;;;;3.85;2.55;;;15.80;64.20;;;14.92;65.36;96222.78;4888126;28;20804;-65
2022/05/22 00:15:10;;;;;;;3.85;2.55;;;15.70;64.40;;;14.88;64.75;96224.25;4902075;28;20497;-63
2022/05/22 00:17:36;;;;;;;7.13;2.85;;;15.60;64.80;;;14.84;65.63;96215.09;4887726;28;20111;-63
2022/05/22 00:20:04;;;;;;;5.13;2.70;;;15.70;64.90;;;14.80;65.41;96224.50;4887554;28;20268;-62
2022/05/22 00:22:31;;;;;;;4.28;2.45;;;15.70;65.10;;;14.76;65.25;96221.47;4884062;28;20208;-62
2022/05/22 00:25:00;;;;;;;8.73;2.88;;;15.60;64.90;;;14.75;65.45;96226.97;4884037;28;20364;-62
2022/05/22 00:27:27;;;;;;;3.30;2.40;;;15.60;65.10;;;14.68;66.10;96225.16;4897494;28;20597;-62
2022/05/22 00:29:53;;;;;;;3.70;2.22;;;15.50;65.10;;;14.65;66.07;96217.63;4884133;28;20304;-61
2022/05/22 00:32:20;;;;;;;3.47;2.38;;;15.50;65.30;;;14.64;66.39;96215.19;4886508;28;20347;-62
2022/05/22 00:34:46;;;;;;;4.93;2.83;;;15.50;65.50;;;14.60;64.72;96214.81;4885503;28;20363;-62
2022/05/22 00:37:12;;;;;;;4.63;2.30;;;15.40;65.10;;;14.59;65.57;96215.03;4883253;28;20452;-62
2022/05/22 00:39:38;;;;;;;2.97;2.10;;;15.50;65.00;;;14.57;65.21;96202.00;4879228;28;20561;-62
2022/05/22 00:42:21;;;;;;;5.43;2.58;;;15.50;65.30;;;14.56;67.43;96202.22;4872986;28;20401;-62
2022/05/22 00:44:48;;;;;;;3.88;2.50;;;15.50;65.50;;;14.51;65.76;96194.09;4871235;28;20507;-62
2022/05/22 00:47:14;;;;;;;5.05;2.45;;;15.40;65.70;;;14.51;66.84;96202.06;4888566;28;20524;-62
2022/05/22 00:49:43;;;;;;;3.55;2.63;;;15.40;65.80;;;14.47;66.62;96193.69;4891654;28;20347;-62
2022/05/22 00:52:34;;;;;;;3.80;2.42;;;15.40;66.00;;;14.49;67.35;96201.44;4899789;28;20570;-62
2022/05/22 00:55:24;;;;;;;4.18;2.47;;;15.30;65.80;;;14.47;67.33;96204.28;4915588;28;20568;-63
2022/05/22 00:57:54;;;;;;;6.43;2.80;;;15.40;65.60;;;14.43;66.37;96192.50;4888045;28;20403;-63
2022/05/22 01:00:26;;;;;;;3.92;2.35;;;15.40;65.80;;;14.42;66.92;96201.44;4866904;28;20327;-63
2022/05/22 01:05:37;;;;;;;4.03;2.78;;;15.30;65.50;;;14.38;66.69;96194.94;4883598;28;20362;-63
2022/05/22 01:08:04;;;;;;;4.13;2.38;;;15.30;65.60;;;14.34;66.01;96196.38;4902068;28;20486;-63
2022/05/22 01:10:47;;;;;;;2.92;2.50;;;15.20;65.80;;;14.31;67.16;96202.09;4854461;28;20402;-62
2022/05/22 01:13:18;;;;;;;4.47;2.60;;;15.20;65.60;;;14.28;67.66;96197.22;4884833;28;20455;-61
2022/05/22 01:15:45;;;;;;;3.83;2.58;;;15.10;66.00;;;14.26;66.30;96196.63;4883749;28;20563;-61
2022/05/22 01:18:11;;;;;;;4.38;2.90;;;15.10;65.80;;;14.26;66.42;96209.84;4897469;28;20329;-61
2022/05/22 01:20:37;;;;;;;4.35;2.80;;;15.20;65.80;;;14.24;65.68;96196.00;4884065;28;20437;-61
2022/05/22 01:23:03;;;;;;;5.35;2.70;;;15.10;65.60;;;14.22;66.63;96200.69;4870667;28;20595;-62
2022/05/22 01:25:31;;;;;;;3.10;2.40;;;15.10;65.60;;;14.19;66.29;96203.75;4879607;28;20538;-62
2022/05/22 01:27:57;;;;;;;4.57;2.88;;;15.10;65.40;;;14.17;65.76;96203.97;4901212;28;20407;-62
2022/05/22 01:30:26;;;;;;;3.40;2.53;;;15.10;65.60;;;14.16;67.24;96206.81;4866685;28;20514;-62
2022/05/22 01:32:52;;;;;;;6.63;2.50;;;15.10;65.60;;;14.14;66.01;96203.56;4870833;28;20643;-62
2022/05/22 01:35:24;;;;;;;4.93;2.88;;;15.10;65.60;;;14.13;67.28;96207.25;4869125;28;20402;-62
2022/05/22 01:37:51;;;;;;;5.10;2.70;;;15.00;66.00;;;14.10;66.31;96209.28;4891581;28;20442;-62
2022/05/22 01:40:18;;;;;;;5.97;2.70;;;15.00;66.00;;;14.08;67.71;96194.66;4869249;28;20368;-62
2022/05/22 01:42:44;;;;;;;3.35;2.50;;;15.00;66.00;;;14.06;68.12;96196.69;4887773;28;20356;-61
2022/05/22 01:45:15;;;;;;;5.05;2.28;;;15.00;66.50;;;14.03;68.70;96187.34;4902380;28;20038;-61
2022/05/22 01:47:41;;;;;;;4.90;2.63;;;15.00;66.70;;;14.00;66.89;96198.31;4949278;28;20359;-60
2022/05/22 01:50:08;;;;;;;3.20;2.55;;;14.90;66.80;;;13.94;67.73;96191.22;4939101;28;20033;-60
2022/05/22 01:52:34;;;;;;;4.45;2.45;;;14.80;66.90;;;13.90;67.43;96182.06;4938250;28;20099;-61
2022/05/22 01:55:00;;;;;;;3.67;2.70;;;14.80;67.40;;;13.87;68.03;96179.84;4928151;28;20304;-60
2022/05/22 01:57:27;;;;;;;6.10;2.65;;;14.80;67.60;;;13.83;68.76;96170.72;4940306;28;20427;-61
2022/05/22 01:59:53;;;;;;;4.28;2.90;;;14.70;67.70;;;13.79;68.39;96174.75;4929548;28;20037;-60
2022/05/22 02:02:19;;;;;;;5.90;2.40;;;14.60;67.80;;;13.75;69.22;96169.09;4947127;28;20502;-61
2022/05/22 02:04:45;;;;;;;3.97;2.78;;;14.70;67.90;;;13.72;69.18;96163.41;4906769;28;20468;-60
2022/05/22 02:09:55;;;;;;;5.72;2.80;;;14.60;67.90;;;13.66;69.19;96174.81;4946985;28;20645;-60
2022/05/22 02:12:21;;;;;;;3.97;2.53;;;14.60;67.70;;;13.61;68.50;96166.69;4961430;28;20046;-61
2022/05/22 02:14:47;;;;;;;5.22;3.17;;;14.50;67.70;;;13.57;68.12;96160.97;4959555;28;20495;-62
2022/05/22 02:17:13;;;;;;;5.03;3.08;;;14.50;67.60;;;13.53;68.46;96158.97;4891945;28;20760;-62
2022/05/22 02:19:39;;;;;;;3.33;2.78;;;14.40;67.80;;;13.48;68.33;96163.03;4889769;28;20689;-61
2022/05/22 02:22:05;;;;;;;6.15;3.15;;;14.40;68.00;;;13.43;69.63;96159.41;4882049;28;20456;-61
2022/05/22 02:24:31;;;;;;;4.85;3.05;;;14.20;68.50;;;13.38;68.86;96157.38;4886456;28;20378;-61
2022/05/22 02:26:57;;;;;;;4.55;3.08;;;14.20;68.80;;;13.35;69.51;96151.66;4882044;28;20689;-60
2022/05/22 02:29:24;;;;;;;4.45;3.00;;;14.30;69.10;;;13.32;70.14;96152.88;4878915;28;20411;-61
2022/05/22 02:31:50;;;;;;;4.60;2.95;;;14.20;69.10;;;13.30;69.60;96147.00;4879384;28;20747;-61
2022/05/22 02:34:16;;;;;;;4.95;3.00;;;14.20;68.90;;;13.29;70.18;96152.47;4867721;28;20343;-61
2022/05/22 02:36:42;;;;;;;4.82;2.92;;;14.20;68.90;;;13.24;69.84;96155.75;4895888;28;20311;-61
2022/05/22 02:39:08;;;;;;;4.20;3.00;;;14.10;69.10;;;13.19;70.01;96152.91;4861549;28;20805;-61
2022/05/22 02:41:35;;;;;;;4.00;2.75;;;14.10;69.40;;;13.16;69.87;96154.09;4881061;28;20685;-61
2022/05/22 02:44:01;;;;;;;2.92;2.63;;;14.10;69.20;;;13.16;70.36;96142.72;4903603;28;20336;-60
2022/05/22 02:46:27;;;;;;;5.55;3.03;;;14.10;69.30;;;13.14;70.89;96147.41;4900049;28;20481;-61
2022/05/22 02:48:53;;;;;;;3.97;3.08;;;14.10;69.60;;;13.13;70.85;96137.84;4875845;28;20412;-61
2022/05/22 02:51:20;;;;;;;4.05;2.75;;;14.10;69.80;;;13.11;70.79;96145.94;4910087;28;20243;-61
2022/05/22 02:53:46;;;;;;;5.13;2.85;;;14.10;69.70;;;13.06;70.40;96143.09;4906709;28;20271;-61
2022/05/22 02:56:19;;;;;;;4.88;2.90;;;14.10;69.50;;;13.05;71.78;96146.78;4874000;28;20140;-60
2022/05/22 02:58:45;;;;;;;4.38;3.30;;;14.00;69.40;;;13.01;70.83;96139.47;4879203;28;20341;-61
2022/05/22 03:01:11;;;;;;;4.78;2.90;;;13.90;69.50;;;12.97;71.08;96139.06;4909870;28;20427;-60
2022/05/22 03:03:37;;;;;;;5.50;3.10;;;13.90;69.60;;;12.96;71.02;96136.63;4898679;28;20350;-61
2022/05/22 03:08:48;;;;;;;5.35;3.38;;;13.90;70.00;;;12.93;71.44;96142.31;4892295;28;20729;-61
2022/05/22 03:11:15;;;;;;;4.80;3.50;;;13.90;70.30;;;12.89;71.38;96142.69;4871360;28;20294;-61
2022/05/22 03:13:41;;;;;;;4.53;3.50;;;13.80;70.50;;;12.87;71.99;96139.44;4869823;28;20367;-61
2022/05/22 03:16:07;;;;;;;4.55;3.70;;;13.90;70.80;;;12.88;72.24;96140.25;4866282;28;20715;-61
2022/05/22 03:18:33;;;;;;;5.57;3.35;;;13.90;70.90;;;12.85;72.51;96138.84;4854834;28;20349;-61
2022/05/22 03:20:59;;;;;;;5.70;3.80;;;13.90;71.10;;;12.82;72.45;96133.16;4884003;28;20594;-61
2022/05/22 03:23:25;;;;;;;4.15;3.38;;;13.80;71.60;;;12.83;72.93;96137.41;4899535;28;20315;-61
2022/05/22 03:25:52;;;;;;;5.30;3.28;;;13.90;71.80;;;12.81;73.89;96129.69;4864644;28;20426;-63
2022/05/22 03:28:18;;;;;;;4.20;3.47;;;13.90;71.90;;;12.81;73.68;96127.06;4890905;28;20368;-61
2022/05/22 03:30:44;;;;;;;6.10;3.58;;;13.90;72.40;;;12.81;74.09;96129.69;4886005;28;20362;-62
2022/05/22 03:33:10;;;;;;;5.47;3.40;;;13.90;72.60;;;12.83;74.44;96122.38;4915916;28;20434;-61
2022/05/22 03:35:36;;;;;;;4.40;3.40;;;13.90;72.30;;;12.84;74.55;96139.03;4898138;28;20348;-61
2022/05/22 03:38:03;;;;;;;4.78;3.75;;;13.90;72.60;;;12.85;74.60;96136.19;4884943;28;20663;-61
2022/05/22 03:40:30;;;;;;;5.00;4.03;;;14.00;72.60;;;12.84;73.98;96129.28;4890615;28;20900;-61
2022/05/22 03:42:56;;;;;;;5.30;3.60;;;13.90;72.20;;;12.84;74.32;96134.56;4872067;28;20323;-61
2022/05/22 03:45:22;;;;;;;4.10;3.65;;;13.90;72.50;;;12.86;74.78;96129.91;4871220;28;20323;-61
2022/05/22 03:47:48;;;;;;;5.38;3.60;;;13.90;72.60;;;12.87;74.58;96123.59;4901373;28;20275;-62
2022/05/22 03:50:14;;;;;;;6.72;4.18;;;14.00;72.50;;;12.87;74.78;96118.31;4854586;28;20286;-62
2022/05/22 03:52:44;;;;;;;5.40;4.20;;;14.00;72.10;;;12.87;75.40;96120.16;4886494;28;20507;-61
2022/05/22 03:55:12;;;;;;;4.65;3.60;;;14.00;72.30;;;12.86;74.80;96121.97;4888297;28;20504;-61
2022/05/22 03:57:38;;;;;;;5.68;4.10;;;14.00;72.00;;;12.89;74.42;96121.56;4870883;28;20382;-61
2022/05/22 04:00:09;;;;;;;6.68;4.50;;;14.10;71.70;;;12.91;74.94;96116.13;4870677;28;20385;-61
2022/05/22 04:02:35;;;;;;;4.93;3.75;;;14.10;71.50;;;12.92;74.31;96115.09;4890115;28;20391;-61
2022/05/22 04:05:08;;;;;;;5.15;4.10;;;14.10;71.20;;;12.92;74.51;96109.00;4898800;28;20520;-61
2022/05/22 04:07:45;;;;;;;5.68;3.90;;;14.10;71.30;;;12.94;75.59;96117.53;4868021;28;20812;-62
2022/05/22 04:10:12;;;;;;;5.90;4.07;;;14.10;71.50;;;12.94;74.37;96118.34;4892904;28;20458;-61
2022/05/22 04:12:39;;;;;;;4.72;3.60;;;14.10;71.50;;;12.97;74.49;96115.28;4900803;28;20469;-62
2022/05/22 04:15:08;;;;;;;6.63;4.00;;;14.20;71.50;;;13.02;74.83;96117.31;4867836;28;20762;-61
2022/05/22 04:17:35;;;;;;;7.10;3.80;;;14.30;71.50;;;13.06;75.47;96115.91;4902462;28;20495;-62
2022/05/22 04:20:01;;;;;;;4.78;3.60;;;14.40;71.50;;;13.11;75.46;96114.25;4897666;28;20761;-61
2022/05/22 04:22:27;;;;;;;4.38;3.47;;;14.50;71.40;;;13.15;75.68;96114.69;4883949;28;20630;-61
2022/05/22 04:25:11;;;;;;;4.85;3.90;;;14.50;71.40;;;13.18;74.78;96112.47;4863343;28;20506;-61
2022/05/22 04:27:42;;;;;;;7.30;3.85;;;14.50;71.30;;;13.21;75.07;96123.66;4873229;28;20282;-61
2022/05/22 04:30:09;;;;;;;5.43;3.72;;;14.50;70.80;;;13.24;74.44;96113.47;4873264;28;20606;-62
2022/05/22 04:32:36;;;;;;;5.78;3.60;;;14.50;71.00;;;13.26;74.68;96122.00;4894049;28;20659;-61
2022/05/22 04:35:02;;;;;;;6.53;4.47;;;14.50;71.40;;;13.28;75.22;96116.53;4903131;28;20381;-61
2022/05/22 04:37:28;;;;;;;4.90;3.88;;;14.60;72.00;;;13.30;75.21;96115.28;4897765;28;20349;-62
2022/05/22 04:39:54;;;;;;;6.07;3.67;;;14.50;72.10;;;13.33;75.43;96122.81;4867659;28;20426;-62
2022/05/22 04:42:20;;;;;;;4.25;3.65;;;14.60;72.30;;;13.35;75.49;96120.78;4884064;28;20292;-63
2022/05/22 04:44:46;;;;;;;4.85;3.33;;;14.60;72.40;;;13.37;75.66;96110.84;4883747;28;20589;-63
2022/05/22 04:47:12;;;;;;;4.70;3.42;;;14.60;72.40;;;13.38;76.59;96114.28;4885063;28;20369;-61
2022/05/22 04:49:38;;;;;;;6.45;3.75;;;14.70;72.30;;;13.42;76.10;96104.94;4916630;28;20220;-61
2022/05/22 04:52:05;;;;;;;6.38;3.70;;;14.70;72.30;;;13.44;76.27;96108.16;4885574;28;20403;-61
2022/05/22 04:54:31;;;;;;;4.65;3.72;;;14.70;72.40;;;13.45;75.79;96115.88;4900793;28;20423;-62
2022/05/22 04:56:57;;;;;;;5.60;3.70;;;14.70;71.90;;;13.48;75.72;96102.25;4903923;28;20318;-61
2022/05/22 04:59:23;;;;;;;8.88;3.58;;;14.80;71.30;;;13.51;75.53;96093.09;4852654;28;20177;-61
2022/05/22 05:01:49;;;;;;;5.50;3.90;;;14.80;70.40;;;13.56;75.52;96090.66;4873639;28;20683;-60
2022/05/22 05:04:15;;;;;;;6.30;3.25;;;14.90;69.80;;;13.60;74.66;96093.72;4925173;28;20717;-61
2022/05/22 05:06:41;;;;;;;7.40;4.00;;;14.90;69.70;;;13.66;74.56;96095.50;4901595;28;20379;-61
2022/05/22 05:09:07;;;;;;;5.72;4.10;;;15.00;70.30;;;13.73;74.30;96096.28;4886195;28;20333;-61
2022/05/22 05:11:33;;;;;;;5.30;4.00;;;15.10;70.30;;;13.81;74.67;96106.66;4899977;28;20352;-62
2022/05/22 05:13:59;;;;;;;8.57;4.43;;;15.20;70.00;;;13.87;74.50;96103.16;4880784;28;20579;-61
2022/05/22 05:16:25;;;;;;;7.18;4.22;;;15.20;69.60;;;13.94;73.56;96097.84;4865615;28;20344;-63
2022/05/22 05:18:51;;;;;;;5.68;4.25;;;15.40;69.50;;;14.03;73.81;96109.81;4870117;28;20419;-60
2022/05/22 05:21:18;;;;;;;6.00;4.55;;;15.50;69.60;;;14.14;74.16;96113.63;4921734;28;20352;-61
2022/05/22 05:23:44;;;;;;;23.75;19.38;;;15.60;69.70;;;14.25;74.06;96116.41;4872922;28;20612;-61
2022/05/22 05:26:10;;;;;;;18.52;14.65;;;15.80;69.10;;;14.37;73.50;96113.94;4886733;28;20374;-61
2022/05/22 05:28:36;;;;;;;17.10;13.27;;;16.00;68.80;;;14.50;74.05;96108.59;4899690;28;20546;-62
2022/05/22 05:31:03;;;;;;;7.03;4.97;;;16.10;68.00;;;14.61;72.40;96105.25;4884088;28;20501;-61
2022/05/22 05:33:32;;;;;;;8.18;3.80;;;16.20;66.90;;;14.74;72.58;96093.78;4882867;28;20499;-61
2022/05/22 05:35:58;;;;;;;9.38;6.97;;;16.40;66.00;;;14.83;72.29;96103.06;4913647;28;20489;-62
2022/05/22 05:38:24;;;;;;;18.80;15.88;;;16.50;64.70;;;14.95;71.44;96103.19;4889784;28;20344;-62
2022/05/22 05:40:50;;;;;;;14.70;11.82;;;16.60;64.50;;;15.07;71.58;96104.09;4856998;28;20204;-62
2022/05/22 05:43:17;;;;;;;8.77;6.00;;;16.70;64.30;;;15.22;69.65;96099.28;4874745;28;20403;-62
2022/05/22 05:45:43;;;;;;;6.15;3.78;;;17.00;63.40;;;15.36;71.23;96094.66;4881784;28;20304;-63
2022/05/22 05:48:09;;;;;;;17.15;12.40;;;17.10;63.60;;;15.51;71.17;96089.00;4888251;28;20319;-63
2022/05/22 05:50:35;;;;;;;10.90;7.50;;;17.40;63.70;;;15.70;69.87;96087.22;4914953;28;20481;-62
2022/05/22 05:53:02;;;;;;;8.45;6.20;;;17.60;62.50;;;15.88;70.38;96072.13;4889769;28;20470;-64
2022/05/22 05:55:28;;;;;;;7.32;4.35;;;17.80;63.00;;;16.09;69.79;96065.53;4888973;28;20462;-63
2022/05/22 05:57:54;;;;;;;6.40;3.80;;;18.00;61.60;;;16.29;69.13;96064.44;4899813;28;20045;-63
2022/05/22 06:00:22;;;;;;;7.30;3.97;;;18.20;61.90;;;16.52;69.37;96052.06;4880197;28;20467;-63
2022/05/22 06:02:49;;;;;;;6.60;3.55;;;18.40;61.60;;;16.73;68.31;96041.94;4888749;28;20371;-63
2022/05/22 06:05:15;;;;;;;5.38;2.83;;;18.60;59.80;;;16.94;66.00;96046.72;4868378;28;20240;-63
2022/05/22 06:07:41;;;;;;;5.03;3.03;;;18.70;57.70;;;17.12;65.74;96049.28;4880512;28;20571;-62
2022/05/22 06:10:12;;;;;;;10.85;7.80;;;18.90;57.60;;;17.29;62.34;96046.72;4881851;28;20464;-62
2022/05/22 06:12:38;;;;;;;5.55;3.50;;;19.10;54.40;;;17.43;61.90;96040.16;4865690;28;20570;-63
2022/05/22 06:15:05;;;;;;;4.88;2.65;;;19.20;53.10;;;17.54;60.32;96038.50;4866694;28;20470;-63
2022/05/22 06:17:36;;;;;;;2.78;1.90;;;19.10;51.70;;;17.58;57.50;96036.16;4880253;28;20954;-63
2022/05/22 06:20:05;;;;;;;3.08;1.50;;;19.10;51.50;;;17.59;58.20;96033.28;4872397;28;20443;-64
2022/05/22 06:22:33;;;;;;;3.70;1.70;;;19.10;50.40;;;17.61;57.65;96036.50;4868178;28;20356;-62
2022/05/22 06:24:59;;;;;;;5.63;2.05;;;19.10;50.60;;;17.63;56.88;96038.94;4883717;28;20352;-63
2022/05/22 06:27:25;;;;;;;3.88;2.15;;;19.20;50.30;;;17.68;57.05;96034.59;4898557;28;20627;-63
2022/05/22 06:29:51;;;;;;;4.05;2.22;;;19.40;50.90;;;17.77;57.27;96044.84;4889077;28;20555;-63
2022/05/22 06:32:18;;;;;;;5.38;3.45;;;19.60;51.80;;;17.91;57.51;96046.19;4905243;28;20315;-63
2022/05/22 06:34:47;;;;;;;13.23;9.25;;;19.80;51.60;;;18.05;57.67;96042.19;4881143;28;20305;-63
2022/05/22 06:37:20;;;;;;;9.35;7.13;;;20.10;50.70;;;18.22;55.71;96043.06;4870852;28;20348;-66
2022/05/22 06:39:53;;;;;;;4.30;2.47;;;20.30;49.20;;;18.36;56.11;96036.41;4877204;28;20692;-66
2022/05/22 06:42:31;;;;;;;3.25;1.77;;;20.40;47.10;;;18.52;53.06;96040.13;4891114;28;20207;-67
2022/05/22 06:45:09;;;;;;;6.65;3.30;;;20.60;46.30;;;18.64;52.67;96035.59;4888454;28;20356;-66
2022/05/22 06:47:35;;;;;;;4.22;1.67;;;20.70;47.20;;;18.76;53.07;96032.84;4891047;28;20345;-67
2022/05/22 06:50:04;;;;;;;5.72;3.72;;;20.80;45.90;;;18.91;54.02;96029.63;4891849;28;20410;-67
2022/05/22 06:52:32;;;;;;;4.90;2.85;;;21.10;46.50;;;19.06;52.54;96026.41;4878818;28;20489;-67
2022/05/22 06:54:59;;;;;;;4.57;2.42;;;21.30;45.70;;;19.20;53.34;96022.31;4891141;28;20209;-65
2022/05/22 06:57:25;;;;;;;3.30;1.90;;;21.50;45.40;;;19.36;52.56;96024.16;4858247;28;20208;-64
2022/05/22 06:59:54;;;;;;;4.47;1.45;;;21.80;44.50;;;19.51;50.41;96024.38;4899565;28;20372;-66
2022/05/22 07:02:21;;;;;;;2.72;1.30;;;21.90;42.20;;;19.64;50.74;96022.41;4885864;28;20542;-62
2022/05/22 07:04:47;;;;;;;3.35;1.70;;;22.10;43.10;;;19.76;50.70;96026.59;4887806;28;20319;-62
2022/05/22 07:07:13;;;;;;;3.15;1.42;;;22.30;43.20;;;19.87;50.57;96016.81;4899492;28;20353;-64
2022/05/22 07:09:39;;;;;;;2.03;1.20;;;22.50;42.00;;;20.03;49.78;96023.97;4907299;28;20439;-63
2022/05/22 07:12:08;;;;;;;3.03;1.30;;;22.70;40.70;;;20.18;48.87;96024.13;4898647;28;20560;-63
2022/05/22 07:14:34;;;;;;;4.68;1.40;;;22.80;39.80;;;20.28;48.55;96023.41;4902979;28;20322;-62
2022/05/22 07:17:04;;;;;;;4.35;1.85;;;23.00;39.90;;;20.38;47.01;96023.53;4888864;28;20715;-63
2022/05/22 07:19:37;;;;;;;2.78;1.17;;;23.10;40.70;;;20.47;48.30;96010.56;4870651;28;20412;-62
2022/05/22 07:22:06;;;;;;;4.50;1.33;;;23.30;40.50;;;20.60;47.57;96010.16;4870811;28;20513;-62
2022/05/22 07:24:36;;;;;;;2.10;1.13;;;23.50;39.60;;;20.71;47.05;96011.84;4888536;28;20428;-62
2022/05/22 07:27:02;;;;;;;2.88;1.42;;;23.70;39.90;;;20.88;47.01;96006.34;4887783;28;20330;-62
2022/05/22 07:29:29;;;;;;;5.03;1.20;;;24.00;39.10;;;21.03;47.31;96013.66;4909434;28;20478;-63
2022/05/22 07:31:56;;;;;;;3.97;1.30;;;24.30;39.00;;;21.17;47.55;96006.81;4890583;28;20448;-63
2022/05/22 07:34:24;;;;;;;4.57;2.45;;;24.50;39.20;;;21.30;46.86;95998.38;4888451;28;20338;-60
2022/05/22 07:36:59;;;;;;;4.78;2.38;;;24.70;37.90;;;21.45;43.75;95997.66;4875249;28;20431;-61
2022/05/22 07:39:25;;;;;;;9.07;3.95;;;24.90;36.20;;;21.60;46.08;96004.94;4882146;28;20296;-61
2022/05/22 07:41:51;;;;;;;3.80;2.47;;;25.30;36.70;;;21.68;44.66;96005.25;4887110;28;20411;-60
2022/05/22 07:44:17;;;;;;;3.63;1.40;;;25.30;35.40;;;21.81;44.13;96009.34;4897079;28;20045;-60
2022/05/22 07:46:43;;;;;;;3.75;1.40;;;25.50;34.90;;;22.00;44.50;95990.91;4902514;28;20430;-61
2022/05/22 07:50:16;;;;;;;3.22;1.40;;;25.80;35.90;;;22.18;43.90;95992.31;4894402;28;20854;-61
2022/05/22 07:51:55;;;;;;;4.07;1.48;;;26.10;34.40;;;22.38;44.56;95989.69;4876971;28;20364;-61
2022/05/22 07:54:22;;;;;;;2.50;1.02;;;26.40;35.00;;;22.56;42.14;95983.00;4886376;28;20504;-61
2022/05/22 07:56:48;;;;;;;2.50;1.20;;;26.50;32.40;;;22.71;42.60;95982.22;4888661;28;20323;-61
2022/05/22 07:59:14;;;;;;;3.65;1.40;;;26.70;33.70;;;22.84;42.09;95979.00;4887111;28;20351;-62
2022/05/22 08:01:40;;;;;;;2.97;1.42;;;26.70;33.00;;;22.96;42.67;95971.50;4869875;28;20360;-61
2022/05/22 08:04:06;;;;;;;8.43;5.10;;;26.80;33.30;;;23.11;42.25;95968.00;4861083;28;20340;-61
2022/05/22 08:06:33;;;;;;;6.90;4.00;;;27.10;33.10;;;23.30;41.59;95965.50;4889751;28;20489;-61
2022/05/22 08:08:59;;;;;;;7.20;5.22;;;27.40;33.20;;;23.48;42.61;95962.25;4894459;28;20806;-62
2022/05/22 08:11:25;;;;;;;5.15;1.73;;;27.60;33.40;;;23.70;41.66;95968.09;4902748;28;20510;-62
2022/05/22 08:13:51;;;;;;;3.65;1.20;;;28.00;33.00;;;23.88;42.00;95969.38;4885388;28;20346;-62
2022/05/22 08:16:18;;;;;;;3.38;1.35;;;28.10;31.50;;;24.08;41.66;95965.78;4874976;28;20564;-61
2022/05/22 08:18:44;;;;;;;5.88;2.22;;;28.50;30.90;;;24.30;40.76;95966.19;4886048;28;20219;-61
2022/05/22 08:21:10;;;;;;;7.50;1.65;;;28.80;31.10;;;24.56;40.37;95966.03;4886600;28;20352;-61
2022/05/22 08:23:36;;;;;;;4.07;1.10;;;29.20;30.70;;;24.77;40.14;95956.72;4886773;28;20359;-61
2022/05/22 08:26:02;;;;;;;5.68;2.33;;;29.40;29.60;;;25.03;40.09;95951.91;4901779;28;20341;-61
2022/05/22 08:28:29;;;;;;;5.40;2.35;;;29.60;30.30;;;25.27;40.09;95947.38;4903364;28;20407;-61
2022/05/22 08:30:55;;;;;;;6.57;3.67;;;29.90;30.70;;;25.54;39.78;95944.09;4878058;28;20606;-60
2022/05/22 08:33:22;;;;;;;9.35;6.00;;;30.10;30.10;;;25.81;39.24;95937.34;4883337;28;20438;-64
2022/05/22 08:35:48;;;;;;;3.95;1.85;;;30.20;29.40;;;26.04;37.81;95941.88;4864344;28;20699;-64
2022/05/22 08:38:14;;;;;;;9.15;5.75;;;30.20;27.70;;;26.31;38.16;95930.44;4865410;28;20402;-65
2022/05/22 08:41:01;;;;;;;6.07;1.50;;;30.50;28.70;;;26.66;35.09;95922.91;4895269;28;20490;-63
2022/05/22 08:43:34;;;;;;;3.30;1.23;;;30.70;28.00;;;27.00;34.27;95931.53;4890943;28;20303;-63
2022/05/22 08:46:18;;;;;;;2.45;1.02;;;31.00;27.60;;;27.26;33.62;95934.53;4868720;28;20412;-63
2022/05/22 08:48:59;;;;;;;3.58;1.00;;;30.90;26.40;;;27.45;33.03;95931.75;4879960;28;20367;-63
2022/05/22 08:51:40;;;;;;;7.57;1.45;;;31.00;26.80;;;27.62;31.13;95928.47;4853201;28;20412;-63
2022/05/22 08:54:27;;;;;;;3.67;1.40;;;31.00;25.70;;;27.75;32.09;95927.66;4865173;28;20482;-63
2022/05/22 08:59:40;;;;;;;2.72;1.05;;;31.00;27.60;;;28.09;34.75;95924.50;4878996;28;20398;-64
2022/05/22 09:02:29;;;;;;;2.60;0.80;;;31.30;28.90;;;28.19;31.34;95918.06;4876643;28;20463;-63
2022/05/22 09:05:06;;;;;;;2.50;0.90;;;31.20;25.90;;;28.18;31.31;95919.16;4884206;28;20470;-63
2022/05/22 09:08:05;;;;;;;2.45;0.70;;;31.10;25.80;;;28.22;31.98;95909.31;4884868;28;20466;-63
2022/05/22 09:10:55;;;;;;;2.78;1.10;;;31.30;27.10;;;28.33;30.63;95918.84;4885724;28;20330;-63
2022/05/22 09:13:53;;;;;;;4.05;1.00;;;31.50;25.90;;;28.41;30.92;95920.00;4904912;28;20530;-62
2022/05/22 09:16:28;;;;;;;2.13;0.80;;;31.50;26.00;;;28.35;30.60;95917.44;4903194;28;20352;-63
2022/05/22 09:19:23;;;;;;;2.90;0.90;;;31.20;25.40;;;28.51;30.56;95908.94;4852530;28;20415;-64
2022/05/22 09:22:21;;;;;;;2.13;0.80;;;31.70;27.10;;;28.67;30.08;95907.47;4874019;28;20395;-63
2022/05/22 09:25:40;;;;;;;3.55;1.13;;;31.80;25.70;;;28.78;30.13;95899.91;4899043;28;20370;-63
2022/05/22 09:28:23;;;;;;;2.83;0.88;;;31.80;25.20;;;28.94;30.77;95898.41;4884456;28;20571;-63
2022/05/22 09:31:00;;;;;;;3.85;1.63;;;32.20;25.70;;;29.15;30.98;95899.47;4869775;28;20304;-66
2022/05/22 09:34:06;;;;;;;4.60;0.90;;;32.80;26.10;;;29.31;29.77;95899.84;4886491;28;20522;-65
2022/05/22 09:36:51;;;;;;;2.70;0.90;;;32.80;24.20;;;29.42;29.86;95897.66;4893710;28;20391;-64
2022/05/22 09:39:38;;;;;;;1.50;0.80;;;33.10;24.70;;;29.52;28.90;95898.19;4897261;28;20798;-64
2022/05/22 09:42:43;;;;;;;2.13;0.88;;;33.00;23.70;;;29.54;28.41;95892.47;4885912;28;20320;-65
2022/05/22 09:45:38;;;;;;;3.67;0.82;;;33.10;23.30;;;29.75;28.90;95890.75;4898769;28;20366;-64
2022/05/22 09:48:38;;;;;;;2.92;1.00;;;33.50;24.10;;;29.90;28.38;95875.16;4877340;28;20364;-63
2022/05/22 09:51:38;;;;;;;3.03;1.50;;;33.60;23.40;;;30.07;28.62;95872.47;4887020;28;20475;-64
2022/05/22 09:54:43;;;;;;;1.75;0.90;;;34.00;23.70;;;30.17;27.93;95866.75;4903553;28;20475;-65
2022/05/22 09:57:37;;;;;;;2.65;1.00;;;34.10;23.00;;;30.45;29.34;95861.75;4899983;28;20319;-65
2022/05/22 10:00:13;;;;;;;1.90;0.75;;;34.70;23.60;;;30.76;27.46;95861.56;4885488;28;20431;-64
2022/05/22 10:03:03;;;;;;;2.85;0.90;;;35.00;22.20;;;31.07;28.83;95851.25;4903269;28;20488;-63
2022/05/22 10:05:57;;;;;;;2.90;0.80;;;35.40;22.70;;;31.43;27.70;95849.97;4888268;28;20472;-64
2022/05/22 10:08:57;;;;;;;1.95;0.82;;;35.70;21.90;;;31.82;27.15;95854.25;4916576;28;20208;-66
2022/05/22 10:12:19;;;;;;;2.80;0.90;;;35.90;20.90;;;31.98;25.63;95846.28;4901997;28;20385;-65
2022/05/22 10:15:29;;;;;;;1.98;0.70;;;35.90;21.10;;;32.20;25.66;95837.00;4887637;28;20439;-63
2022/05/22 10:18:21;;;;;;;1.75;0.80;;;36.20;21.30;;;32.53;25.34;95831.56;4900362;28;20428;-63
2022/05/22 10:21:24;;;;;;;1.90;0.90;;;36.60;20.30;;;32.72;26.31;95831.84;4902586;28;20403;-65
2022/05/22 10:24:34;;;;;;;2.60;0.90;;;37.00;20.80;;;33.04;25.69;95819.31;4903677;28;20438;-62
2022/05/22 10:27:37;;;;;;;2.45;0.77;;;37.50;20.40;;;33.51;25.25;95823.56;4906967;28;20516;-63
2022/05/22 10:30:10;;;;;;;2.03;0.98;;;37.90;20.30;;;33.96;25.89;95818.72;4879752;28;20494;-63
2022/05/22 10:32:46;;;;;;;4.32;1.00;;;38.50;20.30;;;34.18;24.51;95825.59;4886946;28;20280;-63
2022/05/22 10:35:46;;;;;;;3.85;1.90;;;38.40;18.70;;;34.46;23.61;95820.16;4884629;28;20473;-63
2022/05/22 10:38:28;;;;;;;1.52;0.77;;;38.60;19.10;;;34.73;24.75;95814.97;4870069;28;20360;-64
2022/05/22 10:43:48;;;;;;;1.50;0.70;;;38.80;19.60;;;35.20;24.01;95815.81;4875472;28;20449;-64
2022/05/22 10:46:14;;;;;;;3.50;1.10;;;39.20;19.50;;;35.58;24.90;95814.38;4868532;28;20361;-65
2022/05/22 10:48:53;;;;;;;2.10;0.80;;;39.80;19.50;;;35.73;22.50;95815.47;4890119;28;20354;-64